Time;durP1;ratioP1;P1;durP2;ratioP2;P2;SDS_P1;SDS_P2;PMS_P1;PMS_P2;Temp;Humidity;BMP_temperature;BMP_pressure;BME280_temperature;BME280_humidity;BME280_pressure;Samples;Min_cycle;Max_cycle;Signal;HPM_P1;HPM_P2
2024/01/12 00:00:19;;;;;;;54.40;31.80;;;5.20;84.80;;;;;;4973900;28;20045;-80
2024/01/12 00:02:45;;;;;;;58.00;34.38;;;5.20;84.90;;;;;;4973640;28;20034;-80
2024/01/12 00:05:11;;;;;;;69.13;40.08;;;5.20;84.90;;;;;;4955896;28;20473;-80
2024/01/12 00:07:37;;;;;;;57.22;32.63;;;5.00;85.50;;;;;;4973140;28;20030;-80
2024/01/12 00:10:03;;;;;;;56.83;33.25;;;4.90;85.50;;;;;;4972879;28;20054;-79
2024/01/12 00:12:29;;;;;;;49.97;31.90;;;5.00;85.50;;;;;;4974383;28;20093;-79
2024/01/12 00:14:55;;;;;;;51.83;31.85;;;5.00;85.50;;;;;;4973804;28;20030;-79
2024/01/12 00:17:21;;;;;;;57.20;31.48;;;5.00;85.40;;;;;;4973498;28;20093;-79
2024/01/12 00:19:46;;;;;;;58.25;34.17;;;5.00;85.50;;;;;;4973934;28;20031;-79
2024/01/12 00:22:12;;;;;;;62.30;36.65;;;5.00;85.60;;;;;;4973247;28;20046;-80
2024/01/12 00:24:38;;;;;;;57.70;33.63;;;5.00;85.60;;;;;;4974000;28;20031;-79
2024/01/12 00:27:04;;;;;;;57.85;33.42;;;5.00;85.60;;;;;;4955023;28;20046;-79
2024/01/12 00:29:29;;;;;;;56.90;34.03;;;5.00;85.80;;;;;;4969507;28;20018;-80
2024/01/12 00:31:56;;;;;;;58.03;33.25;;;5.00;86.10;;;;;;4973206;28;20470;-80
2024/01/12 00:34:21;;;;;;;54.78;33.40;;;5.10;86.00;;;;;;4955932;28;20362;-80
2024/01/12 00:36:53;;;;;;;57.20;33.58;;;5.10;85.90;;;;;;4973165;28;20504;-80
2024/01/12 00:39:19;;;;;;;72.30;43.05;;;5.00;86.00;;;;;;4972782;28;20089;-79
2024/01/12 00:41:45;;;;;;;60.13;35.53;;;5.00;86.00;;;;;;4972832;28;20102;-80
2024/01/12 00:44:10;;;;;;;50.47;31.88;;;4.90;85.90;;;;;;4974436;28;20130;-80
2024/01/12 00:46:36;;;;;;;72.40;41.47;;;4.90;86.00;;;;;;4977427;28;20429;-79
2024/01/12 00:49:02;;;;;;;52.00;30.55;;;4.80;86.30;;;;;;4977507;28;20038;-80
2024/01/12 00:51:28;;;;;;;60.10;33.13;;;4.80;86.40;;;;;;4977051;28;20035;-80
2024/01/12 00:53:53;;;;;;;48.47;30.63;;;4.80;86.60;;;;;;4976705;28;20393;-80
2024/01/12 00:56:19;;;;;;;50.90;31.48;;;4.80;86.70;;;;;;4976752;28;20055;-80
2024/01/12 00:58:45;;;;;;;57.40;31.80;;;4.90;86.70;;;;;;4977342;28;20106;-80
2024/01/12 01:01:11;;;;;;;51.90;32.00;;;4.90;86.70;;;;;;4977145;28;20473;-80
2024/01/12 01:03:37;;;;;;;45.60;28.77;;;5.00;86.80;;;;;;4977139;28;20377;-80
2024/01/12 01:06:04;;;;;;;50.28;30.25;;;5.00;86.50;;;;;;4976964;28;20022;-80
2024/01/12 01:08:29;;;;;;;47.97;29.65;;;5.00;86.50;;;;;;4970434;28;20027;-80
2024/01/12 01:10:55;;;;;;;48.53;29.85;;;5.00;86.40;;;;;;4976750;28;20038;-80
2024/01/12 01:13:21;;;;;;;50.17;29.70;;;5.00;86.60;;;;;;4976592;28;20469;-80
2024/01/12 01:15:47;;;;;;;46.17;29.67;;;5.00;86.80;;;;;;4976999;28;20035;-80
2024/01/12 01:18:12;;;;;;;50.88;29.63;;;5.00;86.90;;;;;;4958940;28;20030;-80
2024/01/12 01:20:38;;;;;;;49.03;28.23;;;5.10;87.00;;;;;;4976927;28;20429;-80
2024/01/12 01:23:05;;;;;;;57.55;33.03;;;5.10;86.90;;;;;;4976162;28;20122;-80
2024/01/12 01:25:30;;;;;;;55.58;33.03;;;5.10;86.70;;;;;;4976795;28;20030;-80
2024/01/12 01:27:56;;;;;;;46.70;28.38;;;4.90;87.10;;;;;;4976001;28;20401;-79
2024/01/12 01:30:22;;;;;;;47.45;28.92;;;4.90;87.00;;;;;;4976726;28;20027;-79
2024/01/12 01:32:48;;;;;;;40.20;25.13;;;4.90;87.20;;;;;;4976711;28;20078;-80
2024/01/12 01:35:15;;;;;;;49.00;28.35;;;4.80;87.50;;;;;;4976599;28;20066;-80
2024/01/12 01:37:41;;;;;;;50.65;29.67;;;4.90;87.40;;;;;;4976140;28;20491;-79
2024/01/12 01:40:07;;;;;;;49.35;29.50;;;4.80;87.50;;;;;;4990867;28;20058;-80
2024/01/12 01:42:34;;;;;;;44.55;28.13;;;4.90;87.50;;;;;;4959069;28;20073;-80
2024/01/12 01:45:01;;;;;;;48.35;28.42;;;4.90;87.50;;;;;;4959010;28;20050;-81
2024/01/12 01:47:27;;;;;;;45.63;26.67;;;4.90;87.50;;;;;;4958906;28;20027;-81
2024/01/12 01:49:53;;;;;;;48.17;28.77;;;4.90;87.50;;;;;;4976174;28;20031;-81
2024/01/12 01:52:21;;;;;;;39.50;24.40;;;4.90;87.40;;;;;;4975573;28;20042;-81
2024/01/12 01:54:47;;;;;;;48.60;30.67;;;4.90;87.40;;;;;;4975933;28;20039;-81
2024/01/12 01:57:15;;;;;;;45.78;26.92;;;4.80;87.40;;;;;;4975109;28;20171;-81
2024/01/12 01:59:41;;;;;;;49.72;28.00;;;4.80;87.50;;;;;;4976222;28;20465;-81
2024/01/12 02:02:08;;;;;;;47.58;28.08;;;4.80;87.50;;;;;;4958558;28;20045;-81
2024/01/12 02:04:34;;;;;;;49.50;28.73;;;4.80;87.40;;;;;;4976490;28;20025;-81
2024/01/12 02:07:02;;;;;;;41.55;25.42;;;4.80;87.50;;;;;;4958647;28;20370;-81
2024/01/12 02:09:31;;;;;;;42.20;24.90;;;4.70;87.70;;;;;;4976816;28;20109;-81
2024/01/12 02:11:57;;;;;;;42.08;27.00;;;4.70;87.80;;;;;;4975818;28;20031;-81
2024/01/12 02:14:23;;;;;;;47.00;28.75;;;4.70;88.20;;;;;;4976993;28;20078;-80
2024/01/12 02:16:48;;;;;;;40.92;25.80;;;4.80;88.30;;;;;;4975484;28;20058;-81
2024/01/12 02:19:14;;;;;;;41.55;26.08;;;4.80;88.00;;;;;;4975761;28;20081;-80
2024/01/12 02:21:40;;;;;;;48.05;26.83;;;4.80;88.10;;;;;;4975606;28;20092;-80
2024/01/12 02:24:05;;;;;;;42.40;26.33;;;4.80;88.10;;;;;;4990122;28;20019;-80
2024/01/12 02:26:31;;;;;;;39.17;23.98;;;4.90;87.90;;;;;;4975562;28;20031;-80
2024/01/12 02:28:58;;;;;;;41.63;25.80;;;4.90;87.90;;;;;;4975641;28;20031;-80
2024/01/12 02:31:25;;;;;;;45.90;27.05;;;4.80;87.90;;;;;;4975397;28;20035;-80
2024/01/12 02:33:51;;;;;;;48.63;26.83;;;4.90;88.00;;;;;;4975290;28;20029;-80
2024/01/12 02:36:17;;;;;;;43.97;26.20;;;4.80;88.10;;;;;;4975308;28;20443;-80
2024/01/12 02:38:48;;;;;;;45.38;25.55;;;4.80;88.10;;;;;;4975402;28;20070;-80
2024/01/12 02:41:14;;;;;;;44.88;27.00;;;4.80;88.00;;;;;;4975095;28;20030;-80
2024/01/12 02:43:40;;;;;;;38.35;24.67;;;4.80;88.10;;;;;;4957803;28;20338;-80
2024/01/12 02:46:05;;;;;;;43.28;25.50;;;4.70;88.20;;;;;;4956974;28;20126;-80
2024/01/12 02:48:31;;;;;;;51.65;31.77;;;4.70;88.10;;;;;;4975283;28;20035;-80
2024/01/12 02:50:56;;;;;;;38.65;23.42;;;4.70;88.30;;;;;;4975108;28;20385;-80
2024/01/12 02:53:22;;;;;;;41.22;24.95;;;4.70;88.30;;;;;;4974793;28;20049;-80
2024/01/12 02:55:48;;;;;;;40.72;24.92;;;4.70;88.60;;;;;;4974661;28;20054;-80
2024/01/12 02:58:13;;;;;;;41.83;25.73;;;4.70;88.80;;;;;;4974721;28;20054;-80
2024/01/12 03:00:39;;;;;;;41.42;25.10;;;4.70;88.80;;;;;;4975220;28;20550;-80
2024/01/12 03:03:05;;;;;;;37.50;23.67;;;4.80;88.80;;;;;;4974608;28;20432;-81
2024/01/12 03:05:31;;;;;;;39.83;25.60;;;4.80;88.70;;;;;;4975058;28;20113;-81
2024/01/12 03:07:57;;;;;;;44.83;25.13;;;4.80;88.60;;;;;;4956459;28;20037;-81
2024/01/12 03:10:23;;;;;;;36.60;23.40;;;4.90;88.40;;;;;;4974256;28;20038;-81
2024/01/12 03:12:48;;;;;;;37.53;23.10;;;4.90;88.40;;;;;;4974120;28;20479;-80
2024/01/12 03:15:14;;;;;;;40.33;24.77;;;4.90;88.50;;;;;;4974401;28;20062;-81
2024/01/12 03:17:40;;;;;;;35.75;23.58;;;4.90;88.60;;;;;;4974748;28;20030;-80
2024/01/12 03:20:08;;;;;;;37.08;22.70;;;4.90;88.40;;;;;;4989657;28;20073;-81
2024/01/12 03:22:35;;;;;;;38.13;24.80;;;4.90;88.40;;;;;;4974857;28;20108;-80
2024/01/12 03:25:01;;;;;;;45.50;25.90;;;4.90;88.20;;;;;;4974711;28;20058;-81
2024/01/12 03:27:28;;;;;;;44.20;25.58;;;4.90;88.30;;;;;;4974979;28;20412;-80
2024/01/12 03:29:54;;;;;;;34.92;23.50;;;4.90;88.40;;;;;;4975545;28;20118;-80
2024/01/12 03:32:22;;;;;;;41.25;24.40;;;4.90;88.50;;;;;;4975245;28;20062;-80
2024/01/12 03:34:48;;;;;;;37.55;22.77;;;4.90;88.40;;;;;;4974974;28;20026;-80
2024/01/12 03:37:13;;;;;;;41.03;23.23;;;4.90;88.30;;;;;;4978322;28;20370;-80
2024/01/12 03:39:39;;;;;;;31.67;21.02;;;4.90;88.20;;;;;;4963343;28;20115;-80
2024/01/12 03:42:05;;;;;;;41.25;25.02;;;4.90;88.20;;;;;;4963269;28;20043;-80
2024/01/12 03:44:30;;;;;;;34.78;22.27;;;4.80;88.20;;;;;;4981962;28;20019;-80
2024/01/12 03:46:56;;;;;;;38.83;23.58;;;4.80;88.10;;;;;;4980995;28;20030;-81
2024/01/12 03:49:22;;;;;;;36.28;25.08;;;4.80;88.10;;;;;;4979650;28;20440;-80
2024/01/12 03:51:53;;;;;;;40.45;24.55;;;4.80;88.00;;;;;;4979460;28;20027;-81
2024/01/12 03:54:23;;;;;;;45.58;28.95;;;4.70;88.00;;;;;;4978807;28;20031;-80
2024/01/12 03:56:49;;;;;;;36.75;21.70;;;4.60;88.00;;;;;;4974819;28;20086;-80
2024/01/12 03:59:15;;;;;;;50.15;30.23;;;4.40;88.30;;;;;;4975056;28;20065;-80
2024/01/12 04:01:44;;;;;;;59.08;32.17;;;4.30;88.90;;;;;;4988538;28;20030;-80
2024/01/12 04:04:10;;;;;;;49.88;29.08;;;4.20;89.00;;;;;;4974749;28;20043;-80
2024/01/12 04:06:37;;;;;;;60.47;34.38;;;4.10;89.20;;;;;;4974909;28;20460;-80
2024/01/12 04:09:03;;;;;;;53.45;31.13;;;4.00;89.60;;;;;;4974112;28;20054;-80
2024/01/12 04:11:28;;;;;;;48.97;28.20;;;3.90;90.00;;;;;;4974365;28;20038;-81
2024/01/12 04:13:54;;;;;;;42.92;23.13;;;4.00;89.80;;;;;;4973677;28;20033;-80
2024/01/12 04:16:20;;;;;;;42.03;24.25;;;4.10;89.40;;;;;;4973707;28;20031;-80
2024/01/12 04:18:46;;;;;;;37.92;22.00;;;4.20;89.20;;;;;;4956524;28;20027;-81
2024/01/12 04:21:12;;;;;;;43.78;26.83;;;4.20;89.00;;;;;;4973279;28;20374;-81
2024/01/12 04:23:39;;;;;;;36.60;21.45;;;4.10;89.10;;;;;;4973516;28;20118;-81
2024/01/12 04:26:06;;;;;;;33.22;21.83;;;4.10;89.20;;;;;;4972970;28;20410;-81
2024/01/12 04:28:32;;;;;;;38.85;24.08;;;4.10;89.20;;;;;;4988604;28;20380;-81
2024/01/12 04:31:00;;;;;;;48.67;29.83;;;4.10;89.10;;;;;;4973311;28;20042;-81
2024/01/12 04:33:26;;;;;;;33.80;21.52;;;4.00;89.50;;;;;;4966920;28;20035;-81
2024/01/12 04:35:51;;;;;;;40.75;24.63;;;4.00;89.60;;;;;;4974248;28;20048;-81
2024/01/12 04:38:17;;;;;;;37.03;23.40;;;4.00;89.40;;;;;;4972161;28;20035;-81
2024/01/12 04:40:43;;;;;;;39.72;24.40;;;4.10;89.40;;;;;;4956116;28;20041;-81
2024/01/12 04:43:09;;;;;;;36.42;24.02;;;4.10;89.40;;;;;;4972124;28;20115;-80
2024/01/12 04:45:34;;;;;;;39.05;22.83;;;4.20;89.40;;;;;;4956403;28;20397;-80
2024/01/12 04:48:00;;;;;;;41.05;26.02;;;4.10;89.50;;;;;;4973571;28;20019;-81
2024/01/12 04:50:25;;;;;;;32.78;19.92;;;4.00;89.70;;;;;;4973528;28;20106;-81
2024/01/12 04:52:52;;;;;;;33.00;20.85;;;3.90;89.80;;;;;;4973470;28;20050;-81
2024/01/12 04:55:18;;;;;;;37.88;24.23;;;3.90;89.80;;;;;;4955793;28;20043;-80
2024/01/12 04:57:44;;;;;;;38.55;22.80;;;3.90;90.00;;;;;;4972926;28;20563;-80
2024/01/12 05:00:10;;;;;;;41.42;25.70;;;3.90;90.10;;;;;;4972933;28;20042;-79
2024/01/12 05:02:36;;;;;;;39.75;26.58;;;3.90;90.00;;;;;;4975288;28;20023;-79
2024/01/12 05:05:07;;;;;;;31.38;19.88;;;3.90;89.90;;;;;;4973320;28;20023;-82
2024/01/12 05:07:33;;;;;;;41.35;25.80;;;3.90;89.90;;;;;;4963760;28;20034;-81
2024/01/12 05:09:58;;;;;;;35.63;22.40;;;3.90;89.90;;;;;;4974943;28;20031;-81
2024/01/12 05:12:25;;;;;;;26.35;17.88;;;3.80;90.10;;;;;;4972624;28;20034;-81
2024/01/12 05:14:50;;;;;;;42.50;28.38;;;3.80;90.20;;;;;;4973218;28;20022;-81
2024/01/12 05:17:16;;;;;;;41.92;25.95;;;3.70;90.20;;;;;;4973801;28;20366;-81
2024/01/12 05:19:42;;;;;;;30.80;19.02;;;3.60;90.40;;;;;;4974421;28;20038;-81
2024/01/12 05:22:07;;;;;;;30.90;19.58;;;3.50;90.70;;;;;;4970598;28;20062;-81
2024/01/12 05:24:34;;;;;;;30.85;19.83;;;3.60;90.50;;;;;;4968095;28;20090;-81
2024/01/12 05:26:59;;;;;;;35.38;22.98;;;3.60;90.40;;;;;;4968685;28;20034;-81
2024/01/12 05:29:25;;;;;;;31.10;20.48;;;3.60;90.40;;;;;;4972863;28;20481;-81
2024/01/12 05:31:51;;;;;;;34.22;20.05;;;3.70;90.30;;;;;;4974356;28;20058;-81
2024/01/12 05:34:16;;;;;;;33.55;20.02;;;3.70;90.30;;;;;;4976255;28;20027;-81
2024/01/12 05:36:42;;;;;;;34.85;19.85;;;3.70;90.20;;;;;;4976591;28;20038;-82
2024/01/12 05:39:08;;;;;;;45.10;28.17;;;3.70;90.20;;;;;;4976216;28;20027;-81
2024/01/12 05:41:34;;;;;;;32.30;21.42;;;3.70;90.30;;;;;;4976485;28;20041;-82
2024/01/12 05:44:00;;;;;;;40.45;25.58;;;3.70;90.40;;;;;;4972852;28;20409;-84
2024/01/12 05:46:25;;;;;;;43.60;26.63;;;3.70;90.30;;;;;;4957158;28;20037;-83
2024/01/12 05:48:51;;;;;;;30.00;18.75;;;3.70;90.40;;;;;;4967051;28;20029;-83
2024/01/12 05:51:17;;;;;;;31.15;21.63;;;3.60;90.50;;;;;;4972719;28;20041;-83
2024/01/12 05:53:43;;;;;;;31.98;20.35;;;3.60;90.40;;;;;;4989761;28;20041;-82
2024/01/12 05:56:08;;;;;;;37.80;23.38;;;3.70;90.30;;;;;;4972089;28;20035;-82
2024/01/12 05:58:34;;;;;;;28.00;20.00;;;3.70;90.40;;;;;;4956800;29;20075;-82
2024/01/12 06:01:00;;;;;;;27.52;15.93;;;3.70;90.50;;;;;;4964833;28;20045;-82
2024/01/12 06:03:28;;;;;;;35.33;21.35;;;3.70;90.50;;;;;;4946747;29;20106;-82
2024/01/12 06:05:54;;;;;;;26.27;17.35;;;3.60;90.70;;;;;;4956613;29;20438;-82
2024/01/12 06:08:20;;;;;;;31.00;19.17;;;3.60;90.80;;;;;;4956634;29;20027;-82
2024/01/12 06:10:45;;;;;;;36.13;23.27;;;3.60;90.80;;;;;;4938474;29;20525;-82
2024/01/12 06:13:12;;;;;;;35.92;22.95;;;3.60;90.70;;;;;;4945219;28;20042;-81
2024/01/12 06:15:37;;;;;;;47.67;28.50;;;3.60;90.80;;;;;;4948083;29;20077;-82
2024/01/12 06:18:04;;;;;;;33.17;21.40;;;3.50;91.10;;;;;;4930584;29;20473;-82
2024/01/12 06:20:29;;;;;;;27.85;18.38;;;3.50;91.20;;;;;;4938797;29;20489;-83
2024/01/12 06:22:56;;;;;;;33.80;20.85;;;3.50;91.10;;;;;;4960198;28;20035;-83
2024/01/12 06:25:23;;;;;;;28.75;17.88;;;3.60;91.10;;;;;;4958135;28;20042;-83
2024/01/12 06:27:49;;;;;;;32.95;21.90;;;3.60;91.10;;;;;;4939847;29;20015;-83
2024/01/12 06:30:15;;;;;;;36.78;21.73;;;3.60;91.10;;;;;;4973259;28;20031;-84
2024/01/12 06:32:41;;;;;;;31.52;20.42;;;3.50;91.20;;;;;;4961848;28;20109;-84
2024/01/12 06:35:11;;;;;;;26.17;15.85;;;3.50;91.30;;;;;;4956812;29;20106;-84
2024/01/12 06:37:37;;;;;;;24.15;15.65;;;3.50;91.40;;;;;;4939782;29;20051;-83
2024/01/12 06:40:04;;;;;;;21.73;14.23;;;3.60;91.20;;;;;;4970901;28;20117;-84
2024/01/12 06:42:30;;;;;;;20.52;14.80;;;3.60;91.10;;;;;;4966786;28;20026;-83
2024/01/12 06:44:56;;;;;;;29.52;18.25;;;3.70;91.20;;;;;;4952496;28;20022;-83
2024/01/12 06:47:22;;;;;;;25.40;15.95;;;3.90;91.20;;;;;;4967305;28;20041;-82
2024/01/12 06:49:48;;;;;;;31.70;19.95;;;3.90;90.90;;;;;;4968159;28;20036;-83
2024/01/12 06:52:13;;;;;;;23.73;15.13;;;3.90;90.80;;;;;;4973777;28;20429;-84
2024/01/12 06:54:43;;;;;;;31.42;19.08;;;3.90;90.80;;;;;;4963100;28;20409;-83
2024/01/12 06:57:09;;;;;;;30.65;19.13;;;3.90;90.60;;;;;;4972294;28;20047;-81
2024/01/12 06:59:34;;;;;;;28.75;18.10;;;3.80;90.70;;;;;;4957449;28;20397;-81
2024/01/12 07:02:00;;;;;;;25.10;15.45;;;3.80;90.70;;;;;;4970917;28;20035;-80
2024/01/12 07:04:26;;;;;;;24.77;16.70;;;3.80;90.60;;;;;;4939592;29;20031;-80
2024/01/12 07:06:52;;;;;;;38.45;21.83;;;3.80;90.60;;;;;;4971227;28;20023;-80
2024/01/12 07:09:19;;;;;;;27.67;17.33;;;3.70;90.50;;;;;;4964341;28;20378;-80
2024/01/12 07:11:45;;;;;;;26.65;16.80;;;3.70;90.70;;;;;;4956433;29;20031;-81
2024/01/12 07:14:15;;;;;;;32.70;19.90;;;3.70;90.70;;;;;;4953510;28;20042;-80
2024/01/12 07:16:41;;;;;;;32.53;20.65;;;3.70;90.70;;;;;;4954296;28;20501;-80
2024/01/12 07:19:07;;;;;;;19.80;12.85;;;3.70;90.70;;;;;;4937647;29;20046;-80
2024/01/12 07:21:33;;;;;;;27.80;15.07;;;3.70;90.80;;;;;;4956952;28;20432;-82
2024/01/12 07:23:59;;;;;;;27.60;16.55;;;3.80;91.10;;;;;;4954173;28;20058;-81
2024/01/12 07:26:25;;;;;;;26.52;16.35;;;3.90;90.80;;;;;;4957896;28;20054;-79
2024/01/12 07:28:51;;;;;;;33.17;19.90;;;4.00;90.70;;;;;;4954120;28;20069;-80
2024/01/12 07:31:17;;;;;;;29.13;19.23;;;4.10;90.60;;;;;;4955420;28;20019;-80
2024/01/12 07:33:43;;;;;;;22.90;15.48;;;4.10;90.20;;;;;;4955616;28;20038;-80
2024/01/12 07:36:09;;;;;;;25.73;16.83;;;4.10;90.10;;;;;;4956970;28;20396;-80
2024/01/12 07:38:35;;;;;;;20.92;13.60;;;4.10;90.00;;;;;;4955648;28;20038;-80
2024/01/12 07:41:00;;;;;;;23.52;13.98;;;4.00;90.10;;;;;;4955176;28;20031;-80
2024/01/12 07:43:30;;;;;;;28.10;15.63;;;4.10;90.20;;;;;;4954902;28;20378;-80
2024/01/12 07:45:56;;;;;;;24.40;15.43;;;4.10;90.10;;;;;;4956724;28;20023;-80
2024/01/12 07:48:22;;;;;;;23.02;14.32;;;4.20;90.10;;;;;;4956338;28;20062;-80
2024/01/12 07:50:48;;;;;;;21.63;13.25;;;4.30;89.70;;;;;;4955793;28;20062;-80
2024/01/12 07:53:14;;;;;;;21.00;12.82;;;4.30;89.50;;;;;;4955994;28;20198;-80
2024/01/12 07:55:40;;;;;;;20.50;13.35;;;4.40;89.60;;;;;;4938893;28;20540;-80
2024/01/12 07:58:05;;;;;;;21.60;13.40;;;4.40;89.50;;;;;;4955414;28;20055;-80
2024/01/12 08:00:31;;;;;;;25.15;13.68;;;4.50;89.40;;;;;;4955422;29;20027;-82
2024/01/12 08:02:57;;;;;;;21.20;13.40;;;4.60;89.90;;;;;;4960465;28;20085;-81
2024/01/12 08:05:23;;;;;;;18.50;11.95;;;4.70;89.50;;;;;;4937253;29;20470;-82
2024/01/12 08:07:49;;;;;;;23.70;13.93;;;4.70;89.10;;;;;;4955481;29;20105;-82
2024/01/12 08:10:15;;;;;;;21.85;14.60;;;4.80;89.00;;;;;;4938170;29;20027;-81
2024/01/12 08:12:41;;;;;;;23.83;13.93;;;4.90;88.60;;;;;;4955720;29;20118;-81
2024/01/12 08:15:10;;;;;;;18.02;12.55;;;4.90;88.10;;;;;;4955647;29;20079;-81
2024/01/12 08:17:37;;;;;;;23.42;14.57;;;4.90;88.20;;;;;;4955582;29;20039;-81
2024/01/12 08:20:04;;;;;;;19.83;13.57;;;4.90;87.90;;;;;;4955493;29;20031;-81
2024/01/12 08:22:29;;;;;;;19.35;12.38;;;5.00;87.90;;;;;;4955812;28;20043;-81
2024/01/12 08:24:56;;;;;;;19.23;12.27;;;5.00;87.80;;;;;;4955384;29;20067;-81
2024/01/12 08:27:22;;;;;;;14.52;10.40;;;5.10;87.70;;;;;;4955531;29;20453;-81
2024/01/12 08:29:48;;;;;;;21.50;12.50;;;5.10;87.30;;;;;;4955057;29;20062;-82
2024/01/12 08:32:14;;;;;;;21.30;12.85;;;5.20;87.50;;;;;;4955294;29;20085;-82
2024/01/12 08:34:40;;;;;;;22.25;12.43;;;5.30;87.50;;;;;;4955198;29;20047;-81
2024/01/12 08:37:08;;;;;;;19.25;12.82;;;5.40;87.50;;;;;;4955754;29;20078;-82
2024/01/12 08:39:34;;;;;;;26.65;15.88;;;5.40;87.40;;;;;;4955280;29;20031;-82
2024/01/12 08:42:00;;;;;;;25.48;16.23;;;5.50;86.00;;;;;;4955465;29;20028;-81
2024/01/12 08:44:26;;;;;;;15.52;11.00;;;5.50;86.30;;;;;;4970213;28;20104;-81
2024/01/12 08:46:54;;;;;;;18.98;12.38;;;5.60;86.50;;;;;;4955154;28;20027;-82
2024/01/12 08:49:21;;;;;;;17.95;12.18;;;5.80;85.90;;;;;;4954704;29;20039;-83
2024/01/12 08:51:48;;;;;;;20.05;11.63;;;5.90;86.40;;;;;;4954560;29;20038;-83
2024/01/12 08:54:14;;;;;;;16.17;10.45;;;6.00;84.50;;;;;;4969525;28;20035;-82
2024/01/12 08:56:40;;;;;;;17.40;10.13;;;6.20;85.40;;;;;;4975350;28;20050;-82
2024/01/12 08:59:06;;;;;;;12.20;7.95;;;6.40;83.50;;;;;;4965243;28;20039;-82
2024/01/12 09:01:31;;;;;;;23.73;14.35;;;6.50;83.40;;;;;;4985555;28;20025;-82
2024/01/12 09:03:59;;;;;;;15.35;10.25;;;6.70;83.10;;;;;;4975637;28;20023;-82
2024/01/12 09:06:24;;;;;;;18.70;11.90;;;6.80;83.80;;;;;;4975259;28;20125;-82
2024/01/12 09:08:50;;;;;;;25.92;15.60;;;7.00;82.60;;;;;;4977881;28;20476;-82
2024/01/12 09:11:16;;;;;;;14.15;10.45;;;6.90;81.10;;;;;;4960186;28;20121;-82
2024/01/12 09:13:42;;;;;;;19.70;12.93;;;6.90;81.50;;;;;;4983284;28;20158;-82
2024/01/12 09:16:09;;;;;;;25.48;13.80;;;6.90;81.50;;;;;;4966322;28;20026;-82
2024/01/12 09:18:34;;;;;;;22.77;14.23;;;6.90;81.50;;;;;;4940977;29;20038;-82
2024/01/12 09:21:00;;;;;;;20.15;13.07;;;6.80;80.70;;;;;;4958044;29;20031;-82
2024/01/12 09:23:26;;;;;;;23.88;15.00;;;6.70;80.70;;;;;;4970430;28;20038;-82
2024/01/12 09:25:53;;;;;;;15.48;10.55;;;6.70;80.70;;;;;;4977063;28;20442;-82
2024/01/12 09:28:19;;;;;;;21.45;13.57;;;6.60;81.20;;;;;;4956460;28;20388;-84
2024/01/12 09:30:46;;;;;;;22.73;13.95;;;6.70;80.90;;;;;;4977331;28;20037;-85
2024/01/12 09:33:12;;;;;;;25.95;13.10;;;6.80;80.40;;;;;;4977412;28;20058;-82
2024/01/12 09:35:38;;;;;;;22.08;13.25;;;7.00;80.40;;;;;;4971977;28;20035;-82
2024/01/12 09:38:04;;;;;;;11.75;7.90;;;6.90;79.30;;;;;;4959506;28;20118;-82
2024/01/12 09:40:30;;;;;;;12.45;7.82;;;7.10;80.10;;;;;;4958773;28;20034;-82
2024/01/12 09:42:57;;;;;;;13.85;7.97;;;7.30;80.70;;;;;;4976350;28;20030;-82
2024/01/12 09:45:25;;;;;;;11.90;7.32;;;7.50;80.00;;;;;;4976351;28;20066;-82
2024/01/12 09:47:51;;;;;;;12.07;7.07;;;7.70;80.10;;;;;;4970328;28;20135;-82
2024/01/12 09:50:21;;;;;;;14.90;9.48;;;7.90;80.10;;;;;;4975934;28;20027;-82
2024/01/12 09:52:48;;;;;;;14.57;9.43;;;8.00;78.40;;;;;;4973669;28;20446;-82
2024/01/12 09:55:14;;;;;;;9.18;6.43;;;8.10;76.30;;;;;;4948539;28;20076;-82
2024/01/12 09:57:39;;;;;;;12.82;7.35;;;8.20;77.70;;;;;;4974990;28;20062;-82
2024/01/12 10:00:07;;;;;;;10.32;6.75;;;8.30;76.80;;;;;;4972977;28;20023;-82
2024/01/12 10:02:33;;;;;;;9.85;7.40;;;8.50;76.50;;;;;;4975732;28;20067;-82
2024/01/12 10:04:59;;;;;;;15.65;7.85;;;8.70;77.50;;;;;;4963974;28;20457;-83
2024/01/12 10:07:25;;;;;;;8.60;6.07;;;8.80;74.50;;;;;;4978079;28;20027;-81
2024/01/12 10:09:50;;;;;;;27.30;10.02;;;8.90;73.50;;;;;;4974103;28;20037;-81
2024/01/12 10:12:16;;;;;;;24.45;8.20;;;8.90;71.40;;;;;;4973604;28;20034;-82
2024/01/12 10:14:42;;;;;;;10.13;6.35;;;8.80;70.10;;;;;;4980043;28;20025;-82
2024/01/12 10:17:08;;;;;;;7.68;4.60;;;8.90;72.90;;;;;;4975524;28;20404;-82
2024/01/12 10:19:34;;;;;;;9.85;6.70;;;9.00;73.60;;;;;;4971291;28;20031;-82
2024/01/12 10:22:00;;;;;;;6.55;5.20;;;9.20;70.60;;;;;;4975643;28;20089;-82
2024/01/12 10:24:27;;;;;;;7.43;4.60;;;9.30;69.60;;;;;;4976479;28;20034;-82
2024/01/12 10:26:53;;;;;;;7.25;4.97;;;9.40;72.90;;;;;;4968089;28;20023;-82
2024/01/12 10:29:18;;;;;;;9.15;5.28;;;9.60;70.60;;;;;;4976150;28;20081;-82
2024/01/12 10:31:45;;;;;;;5.63;4.40;;;9.80;71.90;;;;;;4968733;28;20057;-82
2024/01/12 10:34:12;;;;;;;8.75;4.68;;;10.10;71.70;;;;;;4974133;28;20034;-83
2024/01/12 10:36:39;;;;;;;9.15;5.25;;;10.30;69.00;;;;;;4967165;28;20054;-82
2024/01/12 10:39:10;;;;;;;7.95;5.43;;;10.30;67.90;;;;;;4972640;28;20132;-82
2024/01/12 10:41:36;;;;;;;9.13;4.47;;;10.50;70.20;;;;;;4950292;28;20035;-82
2024/01/12 10:44:04;;;;;;;6.65;4.57;;;10.80;70.50;;;;;;4953475;28;20117;-82
2024/01/12 10:46:30;;;;;;;8.10;4.75;;;11.10;70.10;;;;;;4974248;28;20101;-82
2024/01/12 10:49:10;;;;;;;7.15;5.07;;;11.40;70.00;;;;;;4982506;28;20149;-85
2024/01/12 10:51:49;;;;;;;7.72;4.63;;;11.70;69.40;;;;;;4984347;28;20109;-83
2024/01/12 10:54:38;;;;;;;8.63;5.05;;;12.00;69.10;;;;;;4975546;28;20030;-83
2024/01/12 10:57:05;;;;;;;8.07;4.85;;;12.10;65.70;;;;;;4961494;28;20052;-82
2024/01/12 10:59:31;;;;;;;8.23;3.80;;;12.10;64.10;;;;;;4963330;28;20038;-83
2024/01/12 11:01:59;;;;;;;6.60;4.35;;;12.00;64.50;;;;;;4969783;28;20038;-83
2024/01/12 11:04:26;;;;;;;8.90;3.63;;;12.10;64.40;;;;;;4942126;28;20035;-83
2024/01/12 11:06:56;;;;;;;6.63;3.45;;;12.20;65.50;;;;;;4970544;28;20023;-83
2024/01/12 11:09:23;;;;;;;4.55;3.10;;;12.40;66.40;;;;;;4952366;29;20461;-83
2024/01/12 11:12:02;;;;;;;4.80;3.08;;;12.60;64.80;;;;;;4950727;28;20122;-83
2024/01/12 11:14:29;;;;;;;3.28;2.55;;;12.70;64.40;;;;;;4955370;29;20047;-83
2024/01/12 11:16:55;;;;;;;3.92;2.63;;;12.90;64.80;;;;;;4955313;28;20082;-83
2024/01/12 11:19:21;;;;;;;3.63;2.30;;;13.00;63.90;;;;;;4957918;28;20397;-83
2024/01/12 11:21:46;;;;;;;3.38;2.10;;;13.20;64.00;;;;;;4948275;29;20044;-83
2024/01/12 11:24:12;;;;;;;3.38;2.25;;;13.30;63.60;;;;;;4968417;28;20067;-83
2024/01/12 11:26:41;;;;;;;4.20;2.40;;;13.50;63.00;;;;;;4974571;28;20058;-83
2024/01/12 11:29:13;;;;;;;3.28;2.50;;;13.70;60.80;;;;;;4955007;28;20020;-83
2024/01/12 11:31:49;;;;;;;2.95;2.05;;;13.70;60.90;;;;;;4955688;29;20031;-83
2024/01/12 11:34:16;;;;;;;4.07;2.45;;;13.90;61.80;;;;;;4934659;29;20106;-83
2024/01/12 11:36:44;;;;;;;3.83;2.70;;;14.00;60.10;;;;;;4968705;28;20054;-83
2024/01/12 11:39:13;;;;;;;7.45;2.97;;;14.10;61.30;;;;;;4955416;29;20106;-83
2024/01/12 11:41:46;;;;;;;3.83;2.60;;;14.20;60.90;;;;;;4963540;28;20457;-83
2024/01/12 11:44:12;;;;;;;3.30;2.30;;;14.30;61.40;;;;;;4969798;28;20111;-83
2024/01/12 11:46:38;;;;;;;3.85;2.22;;;14.60;60.40;;;;;;4958691;28;20094;-84
2024/01/12 11:49:04;;;;;;;3.30;2.55;;;14.70;59.60;;;;;;4958019;28;20038;-84
2024/01/12 11:51:30;;;;;;;4.00;2.60;;;15.20;60.30;;;;;;4950676;29;20075;-84
2024/01/12 11:53:58;;;;;;;3.85;2.75;;;16.00;60.70;;;;;;4954503;28;20035;-84
2024/01/12 11:56:25;;;;;;;3.08;2.28;;;17.20;58.90;;;;;;4955750;28;20122;-84
2024/01/12 11:58:56;;;;;;;6.18;3.05;;;18.40;55.90;;;;;;4998914;23;20059;-83
2024/01/12 12:01:24;;;;;;;5.13;2.92;;;19.70;53.70;;;;;;4983707;28;20033;-82
2024/01/12 12:03:50;;;;;;;4.65;3.13;;;20.60;51.90;;;;;;4986742;28;20517;-82
2024/01/12 12:06:16;;;;;;;4.57;3.13;;;21.60;50.10;;;;;;4964649;28;20023;-84
2024/01/12 12:08:42;;;;;;;4.50;2.40;;;22.50;47.70;;;;;;4977408;28;20062;-83
2024/01/12 12:11:08;;;;;;;5.28;3.25;;;22.90;46.90;;;;;;4973409;28;20023;-83
2024/01/12 12:13:35;;;;;;;6.90;3.65;;;23.20;43.90;;;;;;4981677;28;20035;-83
2024/01/12 12:16:01;;;;;;;3.67;2.50;;;23.40;43.10;;;;;;4977722;28;20027;-84
2024/01/12 12:18:30;;;;;;;4.80;2.75;;;23.30;44.60;;;;;;4977808;28;20027;-84
2024/01/12 12:20:55;;;;;;;3.45;2.40;;;23.70;43.70;;;;;;4973842;28;20097;-83
2024/01/12 12:23:21;;;;;;;3.20;2.70;;;23.90;43.70;;;;;;4965292;28;20471;-84
2024/01/12 12:25:48;;;;;;;3.03;2.17;;;24.20;43.30;;;;;;4981347;28;20026;-83
2024/01/12 12:28:14;;;;;;;4.47;2.70;;;24.20;42.70;;;;;;4986335;28;20097;-83
2024/01/12 12:30:40;;;;;;;4.82;2.83;;;24.20;41.50;;;;;;4976653;28;20106;-84
2024/01/12 12:33:08;;;;;;;3.78;2.60;;;24.30;41.90;;;;;;4981510;28;20039;-84
2024/01/12 12:35:34;;;;;;;4.70;3.00;;;24.10;42.30;;;;;;4976175;28;20015;-84